sensor_id;sensor_type;location;lat;lon;timestamp;temperature;humidity
19847;DHT22;10084;50.518;8.588;2023-03-01T05:32:36;21.00;33.50
19847;DHT22;10084;50.518;8.588;2023-03-01T05:35:02;21.00;33.50
19847;DHT22;10084;50.518;8.588;2023-03-01T05:37:27;21.00;33.50
19847;DHT22;10084;50.518;8.588;2023-03-01T05:39:54;21.10;33.60
19847;DHT22;10084;50.518;8.588;2023-03-01T05:42:20;21.10;33.50
19847;DHT22;10084;50.518;8.588;2023-03-01T05:44:45;21.10;33.50
19847;DHT22;10084;50.518;8.588;2023-03-01T05:47:11;21.10;33.40
19847;DHT22;10084;50.518;8.588;2023-03-01T05:49:37;21.10;33.40
19847;DHT22;10084;50.518;8.588;2023-03-01T05:52:03;21.10;33.40
19847;DHT22;10084;50.518;8.588;2023-03-01T05:54:29;21.20;33.50
19847;DHT22;10084;50.518;8.588;2023-03-01T05:56:55;21.20;33.40
19847;DHT22;10084;50.518;8.588;2023-03-01T05:59:21;21.20;33.40
19847;DHT22;10084;50.518;8.588;2023-03-01T06:01:47;21.20;33.40
19847;DHT22;10084;50.518;8.588;2023-03-01T06:04:13;21.20;33.40
19847;DHT22;10084;50.518;8.588;2023-03-01T06:06:39;21.20;33.40
19847;DHT22;10084;50.518;8.588;2023-03-01T06:09:05;21.20;33.30
19847;DHT22;10084;50.518;8.588;2023-03-01T06:11:35;21.20;33.40
19847;DHT22;10084;50.518;8.588;2023-03-01T06:14:01;21.20;33.30
19847;DHT22;10084;50.518;8.588;2023-03-01T06:16:27;21.20;33.30
19847;DHT22;10084;50.518;8.588;2023-03-01T06:18:53;21.20;33.30
19847;DHT22;10084;50.518;8.588;2023-03-01T06:21:18;21.20;33.30
19847;DHT22;10084;50.518;8.588;2023-03-01T06:23:44;21.20;33.30
19847;DHT22;10084;50.518;8.588;2023-03-01T06:26:10;21.20;33.40
19847;DHT22;10084;50.518;8.588;2023-03-01T06:28:36;21.10;33.30
19847;DHT22;10084;50.518;8.588;2023-03-01T06:31:02;21.20;33.30
19847;DHT22;10084;50.518;8.588;2023-03-01T06:33:28;21.20;33.30
19847;DHT22;10084;50.518;8.588;2023-03-01T06:35:57;21.20;33.40
19847;DHT22;10084;50.518;8.588;2023-03-01T06:38:23;21.10;33.40
19847;DHT22;10084;50.518;8.588;2023-03-01T06:40:53;21.10;33.30
19847;DHT22;10084;50.518;8.588;2023-03-01T06:43:20;21.20;33.40
19847;DHT22;10084;50.518;8.588;2023-03-01T06:45:46;21.20;33.40
19847;DHT22;10084;50.518;8.588;2023-03-01T06:48:12;21.20;33.40
19847;DHT22;10084;50.518;8.588;2023-03-01T06:50:37;21.20;33.50
19847;DHT22;10084;50.518;8.588;2023-03-01T06:53:04;21.20;33.40
19847;DHT22;10084;50.518;8.588;2023-03-01T06:55:39;21.20;33.40
19847;DHT22;10084;50.518;8.588;2023-03-01T06:58:06;21.20;33.40
19847;DHT22;10084;50.518;8.588;2023-03-01T07:00:32;21.20;33.30
19847;DHT22;10084;50.518;8.588;2023-03-01T07:02:59;21.20;33.30
19847;DHT22;10084;50.518;8.588;2023-03-01T07:05:25;21.20;33.30
19847;DHT22;10084;50.518;8.588;2023-03-01T07:07:52;21.20;33.40
19847;DHT22;10084;50.518;8.588;2023-03-01T07:10:18;21.20;33.30
19847;DHT22;10084;50.518;8.588;2023-03-01T07:12:44;21.20;33.30
19847;DHT22;10084;50.518;8.588;2023-03-01T07:18:23;21.20;33.00
19847;DHT22;10084;50.518;8.588;2023-03-01T07:20:49;21.20;32.90
19847;DHT22;10084;50.518;8.588;2023-03-01T07:23:14;21.20;32.80
19847;DHT22;10084;50.518;8.588;2023-03-01T07:25:41;21.20;32.70
19847;DHT22;10084;50.518;8.588;2023-03-01T07:28:07;21.20;32.70
19847;DHT22;10084;50.518;8.588;2023-03-01T07:30:33;21.20;33.30
19847;DHT22;10084;50.518;8.588;2023-03-01T07:32:59;21.20;32.60
19847;DHT22;10084;50.518;8.588;2023-03-01T07:35:26;21.20;32.40
19847;DHT22;10084;50.518;8.588;2023-03-01T07:37:52;21.10;32.30
19847;DHT22;10084;50.518;8.588;2023-03-01T07:40:19;21.10;32.20
19847;DHT22;10084;50.518;8.588;2023-03-01T07:42:45;21.10;32.20
19847;DHT22;10084;50.518;8.588;2023-03-01T07:45:11;21.10;32.10
19847;DHT22;10084;50.518;8.588;2023-03-01T07:47:37;21.10;32.00
19847;DHT22;10084;50.518;8.588;2023-03-01T07:50:03;21.00;31.90
19847;DHT22;10084;50.518;8.588;2023-03-01T07:52:30;21.00;31.90
19847;DHT22;10084;50.518;8.588;2023-03-01T07:54:56;21.00;31.70
19847;DHT22;10084;50.518;8.588;2023-03-01T07:57:23;21.00;31.70
19847;DHT22;10084;50.518;8.588;2023-03-01T07:59:48;20.90;31.60
19847;DHT22;10084;50.518;8.588;2023-03-01T08:02:14;20.90;31.60
19847;DHT22;10084;50.518;8.588;2023-03-01T08:04:41;20.90;31.60
19847;DHT22;10084;50.518;8.588;2023-03-01T08:07:08;20.90;31.60
19847;DHT22;10084;50.518;8.588;2023-03-01T08:09:36;20.90;31.60
19847;DHT22;10084;50.518;8.588;2023-03-01T08:12:04;20.90;31.60
19847;DHT22;10084;50.518;8.588;2023-03-01T08:14:31;20.90;31.60
19847;DHT22;10084;50.518;8.588;2023-03-01T08:16:57;20.90;31.60
19847;DHT22;10084;50.518;8.588;2023-03-01T08:19:29;20.90;31.50
19847;DHT22;10084;50.518;8.588;2023-03-01T08:21:55;20.90;31.50
19847;DHT22;10084;50.518;8.588;2023-03-01T08:24:23;20.90;31.50
19847;DHT22;10084;50.518;8.588;2023-03-01T08:26:49;20.90;31.50
19847;DHT22;10084;50.518;8.588;2023-03-01T08:29:15;20.90;31.50
19847;DHT22;10084;50.518;8.588;2023-03-01T08:31:40;20.90;31.50
19847;DHT22;10084;50.518;8.588;2023-03-01T08:34:11;20.90;31.40
19847;DHT22;10084;50.518;8.588;2023-03-01T08:36:42;20.90;31.30
19847;DHT22;10084;50.518;8.588;2023-03-01T08:39:11;20.90;31.10
19847;DHT22;10084;50.518;8.588;2023-03-01T08:41:37;20.90;31.10
19847;DHT22;10084;50.518;8.588;2023-03-01T08:44:04;20.90;31.10
19847;DHT22;10084;50.518;8.588;2023-03-01T08:46:35;20.90;30.90
19847;DHT22;10084;50.518;8.588;2023-03-01T08:49:12;20.90;30.80
19847;DHT22;10084;50.518;8.588;2023-03-01T08:51:39;20.90;30.60
19847;DHT22;10084;50.518;8.588;2023-03-01T08:54:12;21.00;30.50
19847;DHT22;10084;50.518;8.588;2023-03-01T08:56:38;21.00;30.30
19847;DHT22;10084;50.518;8.588;2023-03-01T08:59:04;21.00;30.20
19847;DHT22;10084;50.518;8.588;2023-03-01T09:01:30;21.00;30.00
19847;DHT22;10084;50.518;8.588;2023-03-01T09:03:56;21.10;29.90
19847;DHT22;10084;50.518;8.588;2023-03-01T09:06:22;21.20;29.90
19847;DHT22;10084;50.518;8.588;2023-03-01T09:08:49;21.30;29.80
19847;DHT22;10084;50.518;8.588;2023-03-01T09:11:17;21.40;29.80
19847;DHT22;10084;50.518;8.588;2023-03-01T09:13:44;21.50;29.70
19847;DHT22;10084;50.518;8.588;2023-03-01T09:16:12;21.60;29.70
19847;DHT22;10084;50.518;8.588;2023-03-01T09:18:39;21.70;29.60
19847;DHT22;10084;50.518;8.588;2023-03-01T09:21:06;21.80;29.50
19847;DHT22;10084;50.518;8.588;2023-03-01T09:23:41;21.90;29.50
19847;DHT22;10084;50.518;8.588;2023-03-01T09:26:16;21.90;29.30
19847;DHT22;10084;50.518;8.588;2023-03-01T09:28:45;22.00;29.80
19847;DHT22;10084;50.518;8.588;2023-03-01T09:31:13;22.10;29.10
19847;DHT22;10084;50.518;8.588;2023-03-01T09:33:49;22.10;29.00
19847;DHT22;10084;50.518;8.588;2023-03-01T09:36:23;22.10;28.90
19847;DHT22;10084;50.518;8.588;2023-03-01T09:38:51;22.10;28.80
19847;DHT22;10084;50.518;8.588;2023-03-01T09:41:28;22.20;28.80
19847;DHT22;10084;50.518;8.588;2023-03-01T09:44:15;22.20;28.00
19847;DHT22;10084;50.518;8.588;2023-03-01T09:46:45;22.30;28.10
19847;DHT22;10084;50.518;8.588;2023-03-01T09:49:23;22.40;28.20
19847;DHT22;10084;50.518;8.588;2023-03-01T09:52:27;22.40;28.20
19847;DHT22;10084;50.518;8.588;2023-03-01T09:54:55;22.50;28.20
19847;DHT22;10084;50.518;8.588;2023-03-01T10:00:33;22.50;28.20
19847;DHT22;10084;50.518;8.588;2023-03-01T10:03:36;22.40;28.10
19847;DHT22;10084;50.518;8.588;2023-03-01T10:06:14;22.50;28.10
19847;DHT22;10084;50.518;8.588;2023-03-01T10:08:43;22.40;28.10
19847;DHT22;10084;50.518;8.588;2023-03-01T10:11:27;22.40;28.10
19847;DHT22;10084;50.518;8.588;2023-03-01T10:16:47;22.40;28.00
19847;DHT22;10084;50.518;8.588;2023-03-01T10:19:41;22.40;28.00
19847;DHT22;10084;50.518;8.588;2023-03-01T10:22:17;22.40;27.90
19847;DHT22;10084;50.518;8.588;2023-03-01T10:24:44;22.40;28.00
19847;DHT22;10084;50.518;8.588;2023-03-01T10:27:20;22.40;28.00
19847;DHT22;10084;50.518;8.588;2023-03-01T10:29:56;22.40;27.90
19847;DHT22;10084;50.518;8.588;2023-03-01T10:32:24;22.40;27.90
19847;DHT22;10084;50.518;8.588;2023-03-01T10:34:51;22.40;27.90
19847;DHT22;10084;50.518;8.588;2023-03-01T10:37:19;22.50;27.90
19847;DHT22;10084;50.518;8.588;2023-03-01T10:40:07;22.50;27.90
19847;DHT22;10084;50.518;8.588;2023-03-01T10:42:39;22.50;27.90
19847;DHT22;10084;50.518;8.588;2023-03-01T10:45:33;22.50;27.90
19847;DHT22;10084;50.518;8.588;2023-03-01T10:48:20;22.50;27.80
19847;DHT22;10084;50.518;8.588;2023-03-01T10:50:51;22.60;27.90
19847;DHT22;10084;50.518;8.588;2023-03-01T10:58:27;22.60;27.90
19847;DHT22;10084;50.518;8.588;2023-03-01T11:00:56;22.60;27.90
19847;DHT22;10084;50.518;8.588;2023-03-01T11:03:34;22.60;27.90
19847;DHT22;10084;50.518;8.588;2023-03-01T11:08:42;22.70;27.90
19847;DHT22;10084;50.518;8.588;2023-03-01T11:11:26;22.70;27.90
19847;DHT22;10084;50.518;8.588;2023-03-01T11:16:33;22.70;27.90
19847;DHT22;10084;50.518;8.588;2023-03-01T11:19:20;22.60;27.90
19847;DHT22;10084;50.518;8.588;2023-03-01T11:30:01;22.60;27.80
19847;DHT22;10084;50.518;8.588;2023-03-01T11:32:39;22.60;27.90
19847;DHT22;10084;50.518;8.588;2023-03-01T11:35:17;22.60;27.90
19847;DHT22;10084;50.518;8.588;2023-03-01T11:38:02;22.60;27.90
19847;DHT22;10084;50.518;8.588;2023-03-01T11:46:02;22.60;27.80
19847;DHT22;10084;50.518;8.588;2023-03-01T11:48:57;22.70;27.70
19847;DHT22;10084;50.518;8.588;2023-03-01T12:02:40;23.10;27.40
19847;DHT22;10084;50.518;8.588;2023-03-01T12:10:28;23.30;27.30
19847;DHT22;10084;50.518;8.588;2023-03-01T12:13:22;23.40;27.30
19847;DHT22;10084;50.518;8.588;2023-03-01T12:23:59;23.30;26.80
19847;DHT22;10084;50.518;8.588;2023-03-01T12:26:32;23.30;26.70
19847;DHT22;10084;50.518;8.588;2023-03-01T12:32:25;23.10;26.40
19847;DHT22;10084;50.518;8.588;2023-03-01T12:35:29;23.00;26.30
19847;DHT22;10084;50.518;8.588;2023-03-01T12:40:33;22.70;26.30
19847;DHT22;10084;50.518;8.588;2023-03-01T12:43:27;22.60;26.30
19847;DHT22;10084;50.518;8.588;2023-03-01T12:46:24;22.40;26.10
19847;DHT22;10084;50.518;8.588;2023-03-01T12:49:02;22.20;26.10
19847;DHT22;10084;50.518;8.588;2023-03-01T12:51:31;22.00;26.10
19847;DHT22;10084;50.518;8.588;2023-03-01T12:53:59;21.90;26.10
19847;DHT22;10084;50.518;8.588;2023-03-01T12:56:32;21.80;26.00
19847;DHT22;10084;50.518;8.588;2023-03-01T12:59:11;21.70;26.00
19847;DHT22;10084;50.518;8.588;2023-03-01T13:01:52;21.60;26.00
19847;DHT22;10084;50.518;8.588;2023-03-01T13:04:50;21.50;26.00
19847;DHT22;10084;50.518;8.588;2023-03-01T13:07:38;21.40;26.00
19847;DHT22;10084;50.518;8.588;2023-03-01T13:17:49;21.30;26.10
19847;DHT22;10084;50.518;8.588;2023-03-01T13:20:24;21.30;26.00
19847;DHT22;10084;50.518;8.588;2023-03-01T13:23:08;21.30;25.60
19847;DHT22;10084;50.518;8.588;2023-03-01T13:28:45;21.30;25.60
19847;DHT22;10084;50.518;8.588;2023-03-01T13:33:43;21.40;25.80
19847;DHT22;10084;50.518;8.588;2023-03-01T13:36:10;21.30;25.70
19847;DHT22;10084;50.518;8.588;2023-03-01T13:41:51;21.30;25.70
19847;DHT22;10084;50.518;8.588;2023-03-01T13:49:47;21.20;25.70
19847;DHT22;10084;50.518;8.588;2023-03-01T13:55:29;21.10;25.70
19847;DHT22;10084;50.518;8.588;2023-03-01T13:57:57;21.10;25.70
19847;DHT22;10084;50.518;8.588;2023-03-01T14:00:38;21.00;25.40
19847;DHT22;10084;50.518;8.588;2023-03-01T14:03:13;20.90;25.30
19847;DHT22;10084;50.518;8.588;2023-03-01T14:05:42;20.90;25.60
19847;DHT22;10084;50.518;8.588;2023-03-01T14:08:24;20.80;25.10
19847;DHT22;10084;50.518;8.588;2023-03-01T14:13:48;20.80;25.20
19847;DHT22;10084;50.518;8.588;2023-03-01T14:16:24;20.80;25.20
19847;DHT22;10084;50.518;8.588;2023-03-01T14:21:27;20.60;25.10
19847;DHT22;10084;50.518;8.588;2023-03-01T14:23:54;20.50;25.10
19847;DHT22;10084;50.518;8.588;2023-03-01T14:26:22;20.40;25.10
19847;DHT22;10084;50.518;8.588;2023-03-01T14:28:49;20.40;25.20
19847;DHT22;10084;50.518;8.588;2023-03-01T14:33:59;20.20;25.10
19847;DHT22;10084;50.518;8.588;2023-03-01T14:36:28;20.20;25.30
19847;DHT22;10084;50.518;8.588;2023-03-01T14:38:54;20.20;25.30
19847;DHT22;10084;50.518;8.588;2023-03-01T14:41:23;20.20;25.40
19847;DHT22;10084;50.518;8.588;2023-03-01T14:44:21;20.20;25.40
19847;DHT22;10084;50.518;8.588;2023-03-01T14:46:52;20.20;25.40
19847;DHT22;10084;50.518;8.588;2023-03-01T14:49:21;20.20;25.40
19847;DHT22;10084;50.518;8.588;2023-03-01T14:52:07;20.30;25.50
19847;DHT22;10084;50.518;8.588;2023-03-01T14:54:46;20.30;25.50
19847;DHT22;10084;50.518;8.588;2023-03-01T14:57:15;20.40;25.50
19847;DHT22;10084;50.518;8.588;2023-03-01T14:59:42;20.40;25.50
19847;DHT22;10084;50.518;8.588;2023-03-01T15:02:13;20.50;25.50
19847;DHT22;10084;50.518;8.588;2023-03-01T15:04:45;20.50;25.50
19847;DHT22;10084;50.518;8.588;2023-03-01T15:07:13;20.50;25.40
19847;DHT22;10084;50.518;8.588;2023-03-01T15:09:40;20.60;25.40
19847;DHT22;10084;50.518;8.588;2023-03-01T15:14:58;20.60;25.40
19847;DHT22;10084;50.518;8.588;2023-03-01T15:17:35;20.60;25.40
19847;DHT22;10084;50.518;8.588;2023-03-01T15:20:04;20.60;25.30
19847;DHT22;10084;50.518;8.588;2023-03-01T15:22:31;20.60;25.30
19847;DHT22;10084;50.518;8.588;2023-03-01T15:24:57;20.60;25.30
19847;DHT22;10084;50.518;8.588;2023-03-01T15:27:25;20.60;25.30
19847;DHT22;10084;50.518;8.588;2023-03-01T15:30:01;20.60;25.40
19847;DHT22;10084;50.518;8.588;2023-03-01T15:32:34;20.70;25.50
19847;DHT22;10084;50.518;8.588;2023-03-01T15:35:43;20.80;25.70
19847;DHT22;10084;50.518;8.588;2023-03-01T15:40:54;21.00;26.00
19847;DHT22;10084;50.518;8.588;2023-03-01T15:43:40;21.00;26.00
19847;DHT22;10084;50.518;8.588;2023-03-01T15:48:54;21.10;26.30
19847;DHT22;10084;50.518;8.588;2023-03-01T15:51:31;21.20;26.30
19847;DHT22;10084;50.518;8.588;2023-03-01T15:54:17;21.30;26.40
19847;DHT22;10084;50.518;8.588;2023-03-01T15:56:43;21.30;26.50
19847;DHT22;10084;50.518;8.588;2023-03-01T15:59:10;21.30;26.50
19847;DHT22;10084;50.518;8.588;2023-03-01T16:01:43;21.40;26.70
19847;DHT22;10084;50.518;8.588;2023-03-01T16:04:13;21.40;26.80
19847;DHT22;10084;50.518;8.588;2023-03-01T16:06:46;21.50;26.90
19847;DHT22;10084;50.518;8.588;2023-03-01T16:09:12;21.60;27.00
19847;DHT22;10084;50.518;8.588;2023-03-01T16:11:38;21.60;27.00
19847;DHT22;10084;50.518;8.588;2023-03-01T16:14:06;21.70;27.10
19847;DHT22;10084;50.518;8.588;2023-03-01T16:16:32;21.70;27.10
19847;DHT22;10084;50.518;8.588;2023-03-01T16:18:57;21.80;27.20
19847;DHT22;10084;50.518;8.588;2023-03-01T16:21:24;21.80;27.30
19847;DHT22;10084;50.518;8.588;2023-03-01T16:23:51;21.80;27.30
19847;DHT22;10084;50.518;8.588;2023-03-01T16:26:18;21.90;27.50
19847;DHT22;10084;50.518;8.588;2023-03-01T16:28:45;21.90;27.50
19847;DHT22;10084;50.518;8.588;2023-03-01T16:31:11;22.00;27.60
19847;DHT22;10084;50.518;8.588;2023-03-01T16:33:37;22.00;27.60
19847;DHT22;10084;50.518;8.588;2023-03-01T16:36:09;22.00;27.70
19847;DHT22;10084;50.518;8.588;2023-03-01T16:38:38;22.00;27.80
19847;DHT22;10084;50.518;8.588;2023-03-01T16:41:05;22.10;27.90
19847;DHT22;10084;50.518;8.588;2023-03-01T16:43:36;22.10;27.90
19847;DHT22;10084;50.518;8.588;2023-03-01T16:46:13;22.10;27.90
19847;DHT22;10084;50.518;8.588;2023-03-01T16:48:38;22.10;27.80
19847;DHT22;10084;50.518;8.588;2023-03-01T16:51:06;22.10;27.70
19847;DHT22;10084;50.518;8.588;2023-03-01T16:53:33;22.10;27.50
19847;DHT22;10084;50.518;8.588;2023-03-01T16:56:02;22.00;27.00
19847;DHT22;10084;50.518;8.588;2023-03-01T16:58:29;21.90;26.70
19847;DHT22;10084;50.518;8.588;2023-03-01T17:00:55;21.90;26.50
19847;DHT22;10084;50.518;8.588;2023-03-01T17:03:25;21.80;26.50
19847;DHT22;10084;50.518;8.588;2023-03-01T17:05:51;21.70;26.50
19847;DHT22;10084;50.518;8.588;2023-03-01T17:08:17;21.70;26.60
19847;DHT22;10084;50.518;8.588;2023-03-01T17:10:43;21.70;26.60
19847;DHT22;10084;50.518;8.588;2023-03-01T17:13:10;21.70;26.70
19847;DHT22;10084;50.518;8.588;2023-03-01T17:15:40;21.70;26.70
19847;DHT22;10084;50.518;8.588;2023-03-01T17:18:07;21.70;26.60
19847;DHT22;10084;50.518;8.588;2023-03-01T17:20:33;21.70;26.70
19847;DHT22;10084;50.518;8.588;2023-03-01T17:22:59;21.70;26.60
19847;DHT22;10084;50.518;8.588;2023-03-01T17:25:25;21.70;27.10
19847;DHT22;10084;50.518;8.588;2023-03-01T17:27:51;21.70;26.60
19847;DHT22;10084;50.518;8.588;2023-03-01T17:30:17;21.70;26.60
19847;DHT22;10084;50.518;8.588;2023-03-01T17:32:43;21.60;26.50
19847;DHT22;10084;50.518;8.588;2023-03-01T17:35:09;21.70;26.50
19847;DHT22;10084;50.518;8.588;2023-03-01T17:37:38;21.70;26.50
19847;DHT22;10084;50.518;8.588;2023-03-01T17:40:05;21.60;26.50
19847;DHT22;10084;50.518;8.588;2023-03-01T17:42:32;21.60;26.50
19847;DHT22;10084;50.518;8.588;2023-03-01T17:44:57;21.60;26.50
19847;DHT22;10084;50.518;8.588;2023-03-01T17:47:23;21.60;26.50
19847;DHT22;10084;50.518;8.588;2023-03-01T17:49:49;21.60;26.40
19847;DHT22;10084;50.518;8.588;2023-03-01T17:52:15;21.60;26.50
19847;DHT22;10084;50.518;8.588;2023-03-01T17:54:42;21.60;26.50
19847;DHT22;10084;50.518;8.588;2023-03-01T17:57:08;21.60;26.50
19847;DHT22;10084;50.518;8.588;2023-03-01T17:59:36;21.60;26.50
19847;DHT22;10084;50.518;8.588;2023-03-01T18:02:02;21.60;26.40
19847;DHT22;10084;50.518;8.588;2023-03-01T18:04:28;21.60;26.50
19847;DHT22;10084;50.518;8.588;2023-03-01T18:06:54;21.60;26.40
19847;DHT22;10084;50.518;8.588;2023-03-01T18:09:20;21.60;26.50
19847;DHT22;10084;50.518;8.588;2023-03-01T18:11:46;21.50;26.40
19847;DHT22;10084;50.518;8.588;2023-03-01T18:14:12;21.60;26.40
19847;DHT22;10084;50.518;8.588;2023-03-01T18:16:38;21.50;26.30
19847;DHT22;10084;50.518;8.588;2023-03-01T18:19:04;21.50;26.30
19847;DHT22;10084;50.518;8.588;2023-03-01T18:21:30;21.50;26.30
19847;DHT22;10084;50.518;8.588;2023-03-01T18:23:57;21.50;26.80
19847;DHT22;10084;50.518;8.588;2023-03-01T18:26:24;21.50;26.10
19847;DHT22;10084;50.518;8.588;2023-03-01T18:28:52;21.60;26.10
19847;DHT22;10084;50.518;8.588;2023-03-01T18:31:20;21.60;26.10
19847;DHT22;10084;50.518;8.588;2023-03-01T18:33:47;21.60;26.00
19847;DHT22;10084;50.518;8.588;2023-03-01T18:36:22;21.60;26.00
19847;DHT22;10084;50.518;8.588;2023-03-01T18:38:48;21.70;25.90
19847;DHT22;10084;50.518;8.588;2023-03-01T18:41:15;21.70;25.80
19847;DHT22;10084;50.518;8.588;2023-03-01T18:43:41;21.80;26.30
19847;DHT22;10084;50.518;8.588;2023-03-01T18:46:07;21.90;25.70
19847;DHT22;10084;50.518;8.588;2023-03-01T18:48:33;21.90;25.70
19847;DHT22;10084;50.518;8.588;2023-03-01T18:51:18;22.00;25.60
19847;DHT22;10084;50.518;8.588;2023-03-01T18:53:44;22.10;25.60
19847;DHT22;10084;50.518;8.588;2023-03-01T18:56:11;22.20;25.60
19847;DHT22;10084;50.518;8.588;2023-03-01T18:58:37;22.30;25.60
19847;DHT22;10084;50.518;8.588;2023-03-01T19:01:04;22.40;25.70
19847;DHT22;10084;50.518;8.588;2023-03-01T19:03:34;22.40;25.60
19847;DHT22;10084;50.518;8.588;2023-03-01T19:05:59;22.50;25.70
19847;DHT22;10084;50.518;8.588;2023-03-01T19:08:27;22.60;25.70
19847;DHT22;10084;50.518;8.588;2023-03-01T19:10:56;22.70;25.70
19847;DHT22;10084;50.518;8.588;2023-03-01T19:13:23;22.70;25.60
19847;DHT22;10084;50.518;8.588;2023-03-01T19:15:49;22.80;25.60
19847;DHT22;10084;50.518;8.588;2023-03-01T19:18:15;22.80;25.50
19847;DHT22;10084;50.518;8.588;2023-03-01T19:20:40;22.90;25.50
19847;DHT22;10084;50.518;8.588;2023-03-01T19:23:06;22.90;25.50
19847;DHT22;10084;50.518;8.588;2023-03-01T19:25:33;22.90;25.40
19847;DHT22;10084;50.518;8.588;2023-03-01T19:27:59;22.90;25.40
19847;DHT22;10084;50.518;8.588;2023-03-01T19:30:25;23.00;25.40
19847;DHT22;10084;50.518;8.588;2023-03-01T19:32:54;23.00;25.40
19847;DHT22;10084;50.518;8.588;2023-03-01T19:35:20;23.00;25.30
19847;DHT22;10084;50.518;8.588;2023-03-01T19:37:47;23.00;25.30
19847;DHT22;10084;50.518;8.588;2023-03-01T19:40:13;23.00;25.30
19847;DHT22;10084;50.518;8.588;2023-03-01T19:42:39;23.00;25.30
19847;DHT22;10084;50.518;8.588;2023-03-01T19:45:05;23.00;25.30
19847;DHT22;10084;50.518;8.588;2023-03-01T19:47:31;23.00;25.30
19847;DHT22;10084;50.518;8.588;2023-03-01T19:49:57;23.00;25.30
19847;DHT22;10084;50.518;8.588;2023-03-01T19:52:23;23.00;25.30
19847;DHT22;10084;50.518;8.588;2023-03-01T19:54:49;23.00;25.30
19847;DHT22;10084;50.518;8.588;2023-03-01T19:57:15;23.00;25.30
19847;DHT22;10084;50.518;8.588;2023-03-01T19:59:40;23.00;25.30
19847;DHT22;10084;50.518;8.588;2023-03-01T20:02:08;23.00;25.40
19847;DHT22;10084;50.518;8.588;2023-03-01T20:04:34;23.00;25.30
19847;DHT22;10084;50.518;8.588;2023-03-01T20:07:00;23.00;25.30
19847;DHT22;10084;50.518;8.588;2023-03-01T20:09:25;23.10;25.30
19847;DHT22;10084;50.518;8.588;2023-03-01T20:11:51;23.20;25.30
19847;DHT22;10084;50.518;8.588;2023-03-01T20:14:17;23.30;25.40
19847;DHT22;10084;50.518;8.588;2023-03-01T20:16:44;23.40;25.40
19847;DHT22;10084;50.518;8.588;2023-03-01T20:19:10;23.50;25.40
19847;DHT22;10084;50.518;8.588;2023-03-01T20:21:36;23.60;25.40
19847;DHT22;10084;50.518;8.588;2023-03-01T20:24:01;23.70;25.40
19847;DHT22;10084;50.518;8.588;2023-03-01T20:26:27;23.90;25.40
19847;DHT22;10084;50.518;8.588;2023-03-01T20:28:55;24.00;25.40
19847;DHT22;10084;50.518;8.588;2023-03-01T20:31:23;24.10;25.50
19847;DHT22;10084;50.518;8.588;2023-03-01T20:36:21;24.20;24.90
19847;DHT22;10084;50.518;8.588;2023-03-01T20:38:47;24.30;25.40
19847;DHT22;10084;50.518;8.588;2023-03-01T20:41:13;24.40;25.40
19847;DHT22;10084;50.518;8.588;2023-03-01T20:43:42;24.50;25.40
19847;DHT22;10084;50.518;8.588;2023-03-01T20:46:10;24.50;25.40
19847;DHT22;10084;50.518;8.588;2023-03-01T20:48:37;24.60;25.40
19847;DHT22;10084;50.518;8.588;2023-03-01T20:51:05;24.70;25.50
19847;DHT22;10084;50.518;8.588;2023-03-01T20:53:31;24.80;25.50
19847;DHT22;10084;50.518;8.588;2023-03-01T20:56:06;24.80;25.50
19847;DHT22;10084;50.518;8.588;2023-03-01T20:58:32;24.80;25.50
19847;DHT22;10084;50.518;8.588;2023-03-01T21:00:59;24.90;25.50
19847;DHT22;10084;50.518;8.588;2023-03-01T21:03:25;25.00;25.60
19847;DHT22;10084;50.518;8.588;2023-03-01T21:05:57;25.00;25.60
19847;DHT22;10084;50.518;8.588;2023-03-01T21:10:53;25.10;25.20
19847;DHT22;10084;50.518;8.588;2023-03-01T21:13:19;25.10;25.70
19847;DHT22;10084;50.518;8.588;2023-03-01T21:18:21;25.20;25.70
19847;DHT22;10084;50.518;8.588;2023-03-01T21:20:48;25.10;25.70
19847;DHT22;10084;50.518;8.588;2023-03-01T21:23:14;25.20;25.70
19847;DHT22;10084;50.518;8.588;2023-03-01T21:25:40;25.20;25.70
19847;DHT22;10084;50.518;8.588;2023-03-01T21:28:05;25.20;25.70
19847;DHT22;10084;50.518;8.588;2023-03-01T21:30:31;25.20;25.50
19847;DHT22;10084;50.518;8.588;2023-03-01T21:32:57;25.10;25.40
19847;DHT22;10084;50.518;8.588;2023-03-01T21:35:22;25.00;25.30
19847;DHT22;10084;50.518;8.588;2023-03-01T21:37:48;25.00;25.30
19847;DHT22;10084;50.518;8.588;2023-03-01T21:40:14;25.00;25.30
19847;DHT22;10084;50.518;8.588;2023-03-01T21:42:40;24.90;25.30
19847;DHT22;10084;50.518;8.588;2023-03-01T21:45:09;24.90;25.40
19847;DHT22;10084;50.518;8.588;2023-03-01T21:47:35;24.90;25.40
19847;DHT22;10084;50.518;8.588;2023-03-01T21:50:01;24.80;25.50
19847;DHT22;10084;50.518;8.588;2023-03-01T21:52:27;24.80;25.50
19847;DHT22;10084;50.518;8.588;2023-03-01T21:54:52;24.70;25.50
19847;DHT22;10084;50.518;8.588;2023-03-01T21:57:20;24.70;25.50
19847;DHT22;10084;50.518;8.588;2023-03-01T21:59:46;24.60;25.50
